Time;durP1;ratioP1;P1;durP2;ratioP2;P2;SDS_P1;SDS_P2;PMS_P1;PMS_P2;Temp;Humidity;BMP_temperature;BMP_pressure;BME280_temperature;BME280_humidity;BME280_pressure;Samples;Min_cycle;Max_cycle;Signal;HPM_P1;HPM_P2
2021/10/24 00:00:41;;;;;;;13.23;6.28;;;;;;;;;;5074330;28;20109;-82
2021/10/24 00:03:08;;;;;;;12.38;6.38;;;;;;;;;;5074107;28;20426;-81
2021/10/24 00:05:35;;;;;;;10.85;6.00;;;;;;;;;;5073779;28;20053;-80
2021/10/24 00:08:01;;;;;;;15.30;5.75;;;;;;;;;;5074056;28;20048;-80
2021/10/24 00:10:28;;;;;;;15.48;6.30;;;;;;;;;;5074048;28;20045;-81
2021/10/24 00:12:55;;;;;;;10.60;5.72;;;;;;;;;;5074188;28;20048;-81
2021/10/24 00:15:23;;;;;;;19.50;6.25;;;;;;;;;;5073514;28;20045;-81
2021/10/24 00:17:50;;;;;;;11.35;5.93;;;;;;;;;;5074092;28;20045;-81
2021/10/24 00:20:17;;;;;;;13.38;5.90;;;;;;;;;;5075177;28;20056;-82
2021/10/24 00:22:44;;;;;;;13.50;6.28;;;;;;;;;;5075045;28;20045;-82
2021/10/24 00:25:11;;;;;;;12.77;6.90;;;;;;;;;;5075296;28;20053;-83
2021/10/24 00:27:38;;;;;;;12.38;6.35;;;;;;;;;;5075780;28;20060;-82
2021/10/24 00:30:06;;;;;;;13.10;5.85;;;;;;;;;;5074794;28;20077;-83
2021/10/24 00:32:34;;;;;;;11.23;5.40;;;;;;;;;;5075606;28;20443;-82
2021/10/24 00:35:01;;;;;;;9.85;6.00;;;;;;;;;;5077772;28;20105;-82
2021/10/24 00:37:28;;;;;;;12.27;5.72;;;;;;;;;;5077988;28;20109;-81
2021/10/24 00:39:55;;;;;;;14.55;6.32;;;;;;;;;;5078257;28;20049;-81
2021/10/24 00:42:22;;;;;;;16.92;6.15;;;;;;;;;;5077835;28;20048;-81
2021/10/24 00:44:49;;;;;;;11.85;5.75;;;;;;;;;;5077793;28;20056;-81
2021/10/24 00:47:15;;;;;;;12.07;6.25;;;;;;;;;;5078302;28;20094;-82
2021/10/24 00:49:43;;;;;;;12.82;6.20;;;;;;;;;;5077784;28;20045;-81
2021/10/24 00:52:11;;;;;;;13.95;6.45;;;;;;;;;;5078229;28;20044;-82
2021/10/24 00:54:39;;;;;;;13.77;6.70;;;;;;;;;;5079252;28;20102;-81
2021/10/24 00:57:06;;;;;;;13.05;6.32;;;;;;;;;;5081920;28;20071;-82
2021/10/24 00:59:33;;;;;;;14.13;6.05;;;;;;;;;;5079188;28;20070;-82
2021/10/24 01:02:00;;;;;;;12.55;6.15;;;;;;;;;;5079044;28;20499;-82
2021/10/24 01:04:27;;;;;;;11.48;6.35;;;;;;;;;;5078823;28;20457;-82
2021/10/24 01:06:58;;;;;;;13.23;6.93;;;;;;;;;;5079131;28;20508;-82
2021/10/24 01:09:25;;;;;;;12.32;6.15;;;;;;;;;;5078589;28;20105;-81
2021/10/24 01:11:53;;;;;;;19.23;7.38;;;;;;;;;;5078217;28;20044;-81
2021/10/24 01:14:20;;;;;;;13.18;6.63;;;;;;;;;;5078479;28;20055;-82
2021/10/24 01:16:47;;;;;;;11.52;6.38;;;;;;;;;;5077885;28;20053;-82
2021/10/24 01:19:14;;;;;;;14.82;6.28;;;;;;;;;;5078489;28;20518;-81
2021/10/24 01:21:43;;;;;;;13.45;6.25;;;;;;;;;;5078438;28;20044;-81
2021/10/24 01:24:10;;;;;;;15.80;6.68;;;;;;;;;;5077917;28;20041;-81
2021/10/24 01:26:38;;;;;;;10.88;6.18;;;;;;;;;;5077584;28;20052;-82
2021/10/24 01:29:06;;;;;;;12.88;5.88;;;;;;;;;;5078388;28;20072;-81
2021/10/24 01:31:33;;;;;;;15.23;7.13;;;;;;;;;;5078252;28;20060;-82
2021/10/24 01:33:59;;;;;;;13.95;7.07;;;;;;;;;;5078054;28;20045;-81
2021/10/24 01:36:26;;;;;;;12.93;6.63;;;;;;;;;;5077834;28;20518;-81
2021/10/24 01:38:54;;;;;;;15.68;6.40;;;;;;;;;;5083561;28;20048;-82
2021/10/24 01:41:24;;;;;;;13.52;6.63;;;;;;;;;;5085768;28;20044;-81
2021/10/24 01:43:52;;;;;;;13.05;6.70;;;;;;;;;;5087344;28;20049;-81
2021/10/24 01:46:19;;;;;;;12.95;6.05;;;;;;;;;;5086701;28;20049;-82
2021/10/24 01:48:46;;;;;;;14.15;6.30;;;;;;;;;;5083970;28;20049;-82
2021/10/24 01:51:13;;;;;;;20.00;8.00;;;;;;;;;;5081614;28;20048;-81
2021/10/24 01:53:43;;;;;;;12.93;6.55;;;;;;;;;;5090370;28;20052;-82
2021/10/24 01:56:12;;;;;;;15.20;5.77;;;;;;;;;;5087382;28;20075;-82
2021/10/24 01:58:39;;;;;;;16.92;7.18;;;;;;;;;;5091423;28;20498;-81
2021/10/24 02:01:07;;;;;;;16.02;6.63;;;;;;;;;;5091992;28;20094;-80
2021/10/24 02:03:35;;;;;;;16.67;6.40;;;;;;;;;;5086110;28;20048;-80
2021/10/24 02:06:02;;;;;;;14.82;7.03;;;;;;;;;;5083020;28;20048;-81
2021/10/24 02:08:29;;;;;;;12.07;6.78;;;;;;;;;;5081884;28;20048;-81
2021/10/24 02:10:56;;;;;;;13.45;6.55;;;;;;;;;;5081377;28;20041;-80
2021/10/24 02:13:24;;;;;;;13.60;6.68;;;;;;;;;;5083459;28;20052;-81
2021/10/24 02:15:51;;;;;;;11.57;6.32;;;;;;;;;;5082923;28;20051;-80
2021/10/24 02:18:18;;;;;;;14.05;7.15;;;;;;;;;;5101366;22;20052;-80
2021/10/24 02:20:45;;;;;;;11.85;6.35;;;;;;;;;;5056061;28;20107;-79
2021/10/24 02:23:12;;;;;;;14.93;7.20;;;;;;;;;;5057927;28;20049;-80
2021/10/24 02:25:39;;;;;;;13.38;6.43;;;;;;;;;;5058337;28;20049;-79
2021/10/24 02:28:06;;;;;;;13.30;6.13;;;;;;;;;;5058712;28;20053;-79
2021/10/24 02:30:35;;;;;;;13.00;7.10;;;;;;;;;;5059007;28;20049;-78
2021/10/24 02:33:02;;;;;;;13.57;7.13;;;;;;;;;;5054373;28;20053;-78
2021/10/24 02:35:29;;;;;;;12.55;6.28;;;;;;;;;;5057371;28;20069;-79
2021/10/24 02:37:56;;;;;;;9.85;5.70;;;;;;;;;;5057713;28;20072;-81
2021/10/24 02:40:24;;;;;;;11.05;6.05;;;;;;;;;;5057043;28;20416;-80
2021/10/24 02:42:52;;;;;;;13.98;6.47;;;;;;;;;;5057366;28;20102;-81
2021/10/24 02:45:19;;;;;;;16.83;6.97;;;;;;;;;;5056999;28;20083;-81
2021/10/24 02:47:47;;;;;;;10.88;6.20;;;;;;;;;;5057087;28;20642;-81
2021/10/24 02:50:14;;;;;;;15.13;6.55;;;;;;;;;;5060149;28;20045;-79
2021/10/24 02:52:41;;;;;;;14.60;6.55;;;;;;;;;;5075373;28;20045;-78
2021/10/24 02:55:09;;;;;;;11.90;5.63;;;;;;;;;;5074508;28;20096;-78
2021/10/24 02:57:35;;;;;;;13.95;6.45;;;;;;;;;;5090169;28;20041;-81
2021/10/24 03:00:03;;;;;;;11.15;5.97;;;;;;;;;;5077874;28;20557;-81
2021/10/24 03:02:30;;;;;;;14.88;6.43;;;;;;;;;;5077008;28;20098;-79
2021/10/24 03:04:59;;;;;;;11.60;5.72;;;;;;;;;;5076362;28;20052;-79
2021/10/24 03:07:25;;;;;;;11.65;5.97;;;;;;;;;;5076688;28;20044;-79
2021/10/24 03:09:52;;;;;;;12.30;5.93;;;;;;;;;;5078670;28;20052;-79
2021/10/24 03:12:19;;;;;;;13.32;6.93;;;;;;;;;;5078026;28;20052;-80
2021/10/24 03:14:46;;;;;;;13.43;5.72;;;;;;;;;;5078310;28;20053;-78
2021/10/24 03:17:12;;;;;;;16.38;6.53;;;;;;;;;;5082631;28;20041;-78
2021/10/24 03:19:41;;;;;;;13.10;5.88;;;;;;;;;;5077890;28;20094;-79
2021/10/24 03:22:10;;;;;;;13.27;6.10;;;;;;;;;;5076330;28;20088;-80
2021/10/24 03:24:37;;;;;;;14.07;6.72;;;;;;;;;;5075866;28;20048;-79
2021/10/24 03:27:04;;;;;;;13.98;6.90;;;;;;;;;;5075717;28;20048;-79
2021/10/24 03:29:31;;;;;;;14.80;5.95;;;;;;;;;;5077747;28;20044;-78
2021/10/24 03:32:00;;;;;;;13.80;7.05;;;;;;;;;;5077358;28;20051;-79
2021/10/24 03:34:27;;;;;;;12.32;6.32;;;;;;;;;;5077004;28;20091;-78
2021/10/24 03:36:54;;;;;;;19.02;7.30;;;;;;;;;;5077244;28;20060;-79
2021/10/24 03:39:22;;;;;;;11.70;6.55;;;;;;;;;;5075557;28;20459;-78
2021/10/24 03:41:49;;;;;;;18.35;6.50;;;;;;;;;;5075041;28;20078;-79
2021/10/24 03:44:16;;;;;;;13.77;6.75;;;;;;;;;;5074976;28;20079;-81
2021/10/24 03:46:43;;;;;;;12.88;7.25;;;;;;;;;;5075401;28;20102;-78
2021/10/24 03:49:10;;;;;;;12.10;6.47;;;;;;;;;;5075611;28;20415;-78
2021/10/24 03:51:37;;;;;;;12.75;7.22;;;;;;;;;;5075428;28;20075;-79
2021/10/24 03:54:04;;;;;;;13.73;6.93;;;;;;;;;;5074733;28;20044;-77
2021/10/24 03:56:32;;;;;;;15.05;7.82;;;;;;;;;;5072814;28;20045;-79
2021/10/24 03:58:59;;;;;;;15.35;7.28;;;;;;;;;;5074079;28;20044;-78
2021/10/24 04:01:25;;;;;;;18.50;6.88;;;;;;;;;;5076808;28;20049;-78
2021/10/24 04:03:52;;;;;;;15.50;8.27;;;;;;;;;;5078179;28;20060;-79
2021/10/24 04:06:19;;;;;;;12.27;7.20;;;;;;;;;;5086131;28;20041;-77
2021/10/24 04:08:46;;;;;;;13.57;8.00;;;;;;;;;;5100744;28;20036;-77
2021/10/24 04:11:13;;;;;;;16.52;8.38;;;;;;;;;;5093149;28;20082;-79
2021/10/24 04:13:42;;;;;;;15.18;7.93;;;;;;;;;;5088297;28;20053;-78
2021/10/24 04:16:08;;;;;;;16.45;8.32;;;;;;;;;;5084161;28;20101;-79
2021/10/24 04:18:35;;;;;;;17.75;8.02;;;;;;;;;;5083970;28;20044;-79
2021/10/24 04:21:02;;;;;;;16.05;8.02;;;;;;;;;;5083663;28;20122;-79
2021/10/24 04:23:29;;;;;;;15.82;7.88;;;;;;;;;;5083353;28;20113;-80
2021/10/24 04:25:56;;;;;;;16.67;7.90;;;;;;;;;;5083194;28;20055;-78
2021/10/24 04:28:22;;;;;;;13.15;7.32;;;;;;;;;;5082860;28;20059;-79
2021/10/24 04:30:51;;;;;;;17.98;8.25;;;;;;;;;;5082607;28;20044;-80
2021/10/24 04:33:18;;;;;;;20.42;8.65;;;;;;;;;;5083354;28;20041;-80
2021/10/24 04:35:45;;;;;;;16.95;8.45;;;;;;;;;;5084502;28;20520;-79
2021/10/24 04:38:12;;;;;;;16.08;7.53;;;;;;;;;;5084287;28;20056;-79
2021/10/24 04:40:39;;;;;;;14.93;8.00;;;;;;;;;;5084807;28;20045;-79
2021/10/24 04:43:06;;;;;;;17.02;8.35;;;;;;;;;;5092879;28;20048;-79
2021/10/24 04:45:35;;;;;;;16.38;8.80;;;;;;;;;;5096828;28;20048;-78
2021/10/24 04:48:04;;;;;;;16.08;8.52;;;;;;;;;;5096574;28;20052;-78
2021/10/24 04:50:31;;;;;;;18.45;8.82;;;;;;;;;;5093074;28;20052;-79
2021/10/24 04:52:58;;;;;;;16.83;9.15;;;;;;;;;;5083507;28;20051;-78
2021/10/24 04:55:24;;;;;;;19.08;9.35;;;;;;;;;;5080460;28;20040;-79
2021/10/24 04:57:51;;;;;;;16.42;8.70;;;;;;;;;;5082408;28;20053;-79
2021/10/24 05:00:18;;;;;;;17.17;10.02;;;;;;;;;;5082407;28;20045;-80
2021/10/24 05:02:45;;;;;;;16.15;8.80;;;;;;;;;;5081296;28;20049;-82
2021/10/24 05:05:13;;;;;;;16.45;9.25;;;;;;;;;;5080116;28;20045;-79
2021/10/24 05:07:40;;;;;;;20.58;9.65;;;;;;;;;;5079241;28;20135;-80
2021/10/24 05:10:08;;;;;;;18.33;9.75;;;;;;;;;;5078619;28;20053;-80
2021/10/24 05:12:35;;;;;;;16.85;9.65;;;;;;;;;;5078411;28;20053;-80
2021/10/24 05:15:02;;;;;;;17.90;10.00;;;;;;;;;;5077995;28;20448;-79
2021/10/24 05:17:30;;;;;;;17.70;9.57;;;;;;;;;;5077226;28;20048;-80
2021/10/24 05:19:57;;;;;;;16.63;9.38;;;;;;;;;;5076982;28;20087;-80
2021/10/24 05:22:25;;;;;;;16.95;9.23;;;;;;;;;;5077322;28;20106;-80
2021/10/24 05:24:52;;;;;;;20.20;9.55;;;;;;;;;;5077280;28;20052;-80
2021/10/24 05:27:19;;;;;;;20.92;10.05;;;;;;;;;;5077379;28;20648;-80
2021/10/24 05:29:46;;;;;;;19.83;9.23;;;;;;;;;;5077962;28;20041;-80
2021/10/24 05:32:12;;;;;;;16.20;9.40;;;;;;;;;;5077545;28;20056;-80
2021/10/24 05:34:39;;;;;;;15.52;8.77;;;;;;;;;;5077438;28;20056;-80
2021/10/24 05:37:06;;;;;;;21.85;10.75;;;;;;;;;;5077025;28;20040;-81
2021/10/24 05:39:34;;;;;;;22.15;9.70;;;;;;;;;;5077551;28;20052;-80
2021/10/24 05:42:02;;;;;;;21.23;10.18;;;;;;;;;;5077235;28;20052;-81
2021/10/24 05:44:29;;;;;;;16.70;10.10;;;;;;;;;;5084121;28;20048;-78
2021/10/24 05:46:56;;;;;;;21.88;10.07;;;;;;;;;;5088480;28;20036;-79
2021/10/24 05:49:24;;;;;;;18.45;10.45;;;;;;;;;;5091895;28;20074;-80
2021/10/24 05:51:52;;;;;;;18.48;9.27;;;;;;;;;;5084439;28;20104;-79
2021/10/24 05:54:18;;;;;;;17.25;9.65;;;;;;;;;;5085429;28;20115;-79
2021/10/24 05:56:47;;;;;;;18.25;9.68;;;;;;;;;;5083265;28;20057;-78
2021/10/24 05:59:14;;;;;;;18.58;10.20;;;;;;;;;;5088149;28;20044;-79
2021/10/24 06:01:41;;;;;;;20.92;10.23;;;;;;;;;;5090071;28;20052;-80
2021/10/24 06:04:08;;;;;;;18.92;10.05;;;;;;;;;;5090720;28;20079;-80
2021/10/24 06:06:35;;;;;;;18.40;10.68;;;;;;;;;;5087277;28;20094;-81
2021/10/24 06:09:02;;;;;;;20.90;9.70;;;;;;;;;;5085091;28;20129;-81
2021/10/24 06:11:34;;;;;;;17.52;9.70;;;;;;;;;;5091050;28;20083;-79
2021/10/24 06:14:02;;;;;;;17.77;9.90;;;;;;;;;;5096318;28;20048;-79
2021/10/24 06:16:32;;;;;;;22.25;11.07;;;;;;;;;;5094740;28;20106;-80
2021/10/24 06:18:58;;;;;;;19.20;9.52;;;;;;;;;;5087131;28;20041;-80
2021/10/24 06:21:25;;;;;;;22.70;10.50;;;;;;;;;;5086459;28;20094;-80
2021/10/24 06:23:52;;;;;;;19.50;10.30;;;;;;;;;;5088910;28;20118;-79
2021/10/24 06:26:19;;;;;;;18.20;9.82;;;;;;;;;;5082534;28;20049;-80
2021/10/24 06:28:46;;;;;;;19.77;10.75;;;;;;;;;;5080396;28;20070;-80
2021/10/24 06:31:14;;;;;;;21.98;10.23;;;;;;;;;;5078169;28;20122;-80
2021/10/24 06:33:40;;;;;;;19.17;10.43;;;;;;;;;;5076831;28;20396;-81
2021/10/24 06:36:09;;;;;;;16.83;9.82;;;;;;;;;;5077934;28;20491;-79
2021/10/24 06:38:36;;;;;;;16.33;9.55;;;;;;;;;;5080074;28;20115;-79
2021/10/24 06:41:03;;;;;;;24.70;11.32;;;;;;;;;;5080973;28;20525;-79
2021/10/24 06:43:30;;;;;;;21.83;11.15;;;;;;;;;;5079997;28;20048;-79
2021/10/24 06:45:57;;;;;;;22.92;10.43;;;;;;;;;;5077482;28;20071;-79
2021/10/24 06:48:26;;;;;;;20.83;10.35;;;;;;;;;;5095242;28;20053;-79
2021/10/24 06:50:53;;;;;;;24.80;10.52;;;;;;;;;;5088527;28;20041;-80
2021/10/24 06:53:20;;;;;;;24.15;12.68;;;;;;;;;;5080555;28;20048;-79
2021/10/24 06:55:47;;;;;;;18.95;10.70;;;;;;;;;;5075995;28;20075;-79
2021/10/24 06:58:14;;;;;;;63.22;25.27;;;;;;;;;;5079020;28;20075;-78
2021/10/24 07:00:44;;;;;;;19.30;11.20;;;;;;;;;;5080694;28;20308;-79
2021/10/24 07:03:11;;;;;;;25.50;11.30;;;;;;;;;;5078778;28;20048;-80
2021/10/24 07:05:41;;;;;;;22.38;11.35;;;;;;;;;;5078995;28;20071;-79
2021/10/24 07:08:08;;;;;;;20.95;11.52;;;;;;;;;;5082125;28;20049;-79
2021/10/24 07:10:35;;;;;;;23.10;12.07;;;;;;;;;;5078677;28;20105;-80
2021/10/24 07:13:02;;;;;;;24.67;11.43;;;;;;;;;;5080464;28;20048;-80
2021/10/24 07:15:29;;;;;;;19.63;11.45;;;;;;;;;;5078663;28;20044;-79
2021/10/24 07:17:56;;;;;;;24.23;10.90;;;;;;;;;;5078960;28;20048;-79
2021/10/24 07:20:28;;;;;;;24.27;11.90;;;;;;;;;;5082872;28;20400;-79
2021/10/24 07:22:56;;;;;;;25.63;13.25;;;;;;;;;;5081205;28;20048;-80
2021/10/24 07:25:26;;;;;;;21.70;11.45;;;;;;;;;;5083764;28;20055;-79
2021/10/24 07:27:53;;;;;;;18.60;11.17;;;;;;;;;;5084921;28;20048;-79
2021/10/24 07:30:21;;;;;;;22.90;11.52;;;;;;;;;;5081290;28;20041;-79
2021/10/24 07:32:48;;;;;;;21.17;11.88;;;;;;;;;;5084532;28;20066;-79
2021/10/24 07:35:16;;;;;;;23.67;12.07;;;;;;;;;;5078145;28;20044;-79
2021/10/24 07:37:44;;;;;;;21.63;11.23;;;;;;;;;;5078917;28;20098;-81
2021/10/24 07:40:13;;;;;;;22.40;11.20;;;;;;;;;;5077608;28;20048;-79
2021/10/24 07:42:41;;;;;;;19.63;11.02;;;;;;;;;;5078221;28;20067;-80
2021/10/24 07:45:09;;;;;;;17.88;10.18;;;;;;;;;;5077122;28;20128;-81
2021/10/24 07:47:37;;;;;;;22.25;11.18;;;;;;;;;;5079100;28;20052;-80
2021/10/24 07:50:05;;;;;;;21.38;10.57;;;;;;;;;;5079525;28;20104;-80
2021/10/24 07:52:33;;;;;;;20.08;9.77;;;;;;;;;;5079819;28;20060;-80
2021/10/24 07:55:00;;;;;;;16.67;9.90;;;;;;;;;;5082231;28;20094;-79
2021/10/24 07:57:28;;;;;;;17.92;9.82;;;;;;;;;;5085904;28;20044;-79
2021/10/24 07:59:55;;;;;;;17.35;8.98;;;;;;;;;;5089407;28;20060;-79
2021/10/24 08:02:22;;;;;;;17.90;10.00;;;;;;;;;;5086032;28;20052;-80
2021/10/24 08:04:50;;;;;;;20.15;10.02;;;;;;;;;;5084431;28;20060;-79
2021/10/24 08:07:17;;;;;;;18.70;10.43;;;;;;;;;;5083340;28;20055;-81
2021/10/24 08:09:45;;;;;;;18.92;10.15;;;;;;;;;;5079278;28;20408;-80
2021/10/24 08:12:13;;;;;;;21.60;9.68;;;;;;;;;;5078699;28;20052;-80
2021/10/24 08:14:42;;;;;;;20.85;10.30;;;;;;;;;;5078212;28;20133;-80
2021/10/24 08:17:09;;;;;;;21.00;10.75;;;;;;;;;;5079540;28;20139;-80
2021/10/24 08:19:36;;;;;;;19.33;10.45;;;;;;;;;;5096362;22;20051;-81
2021/10/24 08:22:04;;;;;;;20.35;10.43;;;;;;;;;;5094816;28;20075;-82
2021/10/24 08:24:34;;;;;;;21.92;10.45;;;;;;;;;;5095237;28;20056;-82
2021/10/24 08:27:01;;;;;;;20.40;10.75;;;;;;;;;;5097026;28;20074;-81
2021/10/24 08:29:28;;;;;;;20.60;10.95;;;;;;;;;;5087494;28;20052;-82
2021/10/24 08:31:58;;;;;;;20.33;11.20;;;;;;;;;;5074753;28;20052;-81
2021/10/24 08:34:26;;;;;;;19.55;9.98;;;;;;;;;;5074082;28;20135;-82
2021/10/24 08:36:53;;;;;;;19.05;10.15;;;;;;;;;;5073835;28;20045;-82
2021/10/24 08:39:23;;;;;;;19.17;9.68;;;;;;;;;;5060004;28;20422;-82
2021/10/24 08:41:50;;;;;;;18.23;9.95;;;;;;;;;;5058103;28;20045;-82
2021/10/24 08:44:18;;;;;;;19.98;9.93;;;;;;;;;;5055994;28;20080;-82
2021/10/24 08:46:45;;;;;;;18.42;10.25;;;;;;;;;;5053389;28;20126;-82
2021/10/24 08:49:13;;;;;;;18.95;10.43;;;;;;;;;;5052964;28;20053;-80
2021/10/24 08:51:40;;;;;;;24.50;12.10;;;;;;;;;;5054051;28;20045;-81
2021/10/24 08:54:08;;;;;;;19.35;10.43;;;;;;;;;;5053942;28;20056;-82
2021/10/24 08:56:36;;;;;;;17.75;8.95;;;;;;;;;;5057188;28;20151;-81
2021/10/24 08:59:03;;;;;;;19.17;10.73;;;;;;;;;;5057867;28;20045;-82
2021/10/24 09:01:31;;;;;;;16.65;9.93;;;;;;;;;;5057467;28;20045;-79
2021/10/24 09:04:06;;;;;;;23.27;12.10;;;;;;;;;;5057060;28;20048;-82
2021/10/24 09:06:54;;;;;;;14.90;8.77;;;;;;;;;;5060328;28;20123;-82
2021/10/24 09:09:26;;;;;;;14.18;8.18;;;;;;;;;;5063392;28;20080;-82
2021/10/24 09:11:58;;;;;;;18.27;8.45;;;;;;;;;;5060180;28;20530;-82
2021/10/24 09:14:52;;;;;;;14.38;8.32;;;;;;;;;;5059288;28;20056;-82
2021/10/24 09:17:22;;;;;;;15.75;8.75;;;;;;;;;;5010811;28;20454;-82
2021/10/24 09:19:51;;;;;;;17.77;9.05;;;;;;;;;;5057263;28;20060;-81
2021/10/24 09:22:23;;;;;;;17.50;8.77;;;;;;;;;;5057221;28;20051;-82
2021/10/24 09:25:09;;;;;;;14.57;8.07;;;;;;;;;;5057095;28;20050;-82
2021/10/24 09:27:51;;;;;;;15.13;7.78;;;;;;;;;;5057608;28;20048;-82
2021/10/24 09:30:22;;;;;;;14.98;8.73;;;;;;;;;;5058293;28;20132;-82
2021/10/24 09:32:52;;;;;;;17.50;8.60;;;;;;;;;;5061277;28;20080;-81
2021/10/24 09:35:23;;;;;;;17.10;7.97;;;;;;;;;;5062398;28;20535;-82
2021/10/24 09:37:51;;;;;;;14.70;7.95;;;;;;;;;;5058370;28;20052;-81
2021/10/24 09:40:20;;;;;;;15.50;7.65;;;;;;;;;;5056326;28;20049;-82
2021/10/24 09:42:49;;;;;;;13.98;7.78;;;;;;;;;;5057026;28;20132;-81
2021/10/24 09:45:16;;;;;;;14.20;7.55;;;;;;;;;;5056009;28;20111;-81
2021/10/24 09:47:45;;;;;;;13.55;7.63;;;;;;;;;;5056573;28;20522;-82
2021/10/24 09:50:30;;;;;;;13.05;7.57;;;;;;;;;;5056105;28;20187;-82
2021/10/24 09:53:39;;;;;;;18.30;8.10;;;;;;;;;;5064287;28;20045;-89
2021/10/24 09:56:14;;;;;;;19.15;8.00;;;;;;;;;;5059916;28;20521;-82
2021/10/24 09:59:01;;;;;;;15.55;7.72;;;;;;;;;;5071673;28;20392;-85
2021/10/24 10:01:40;;;;;;;16.25;8.48;;;;;;;;;;5033639;28;20127;-85
2021/10/24 10:04:11;;;;;;;16.48;8.50;;;;;;;;;;5075985;28;20048;-84
2021/10/24 10:06:39;;;;;;;13.73;7.93;;;;;;;;;;5077592;28;20517;-80
2021/10/24 10:09:09;;;;;;;13.13;7.10;;;;;;;;;;5089635;28;20044;-80
2021/10/24 10:11:40;;;;;;;14.82;7.85;;;;;;;;;;5088309;28;20122;-78
2021/10/24 10:14:10;;;;;;;12.45;7.18;;;;;;;;;;5075475;28;20025;-85
2021/10/24 10:16:52;;;;;;;15.23;7.15;;;;;;;;;;5094008;28;20079;-86
2021/10/24 10:20:12;;;;;;;12.43;6.60;;;;;;;;;;5084088;28;20083;-87
2021/10/24 10:25:42;;;;;;;12.30;6.53;;;;;;;;;;5077462;28;20063;-85
2021/10/24 10:28:13;;;;;;;19.98;10.38;;;;;;;;;;5065987;28;20082;-85
2021/10/24 10:30:43;;;;;;;;;;;;;;;;;;5066832;28;20104;-84
2021/10/24 10:33:29;;;;;;;16.90;9.40;;;;;;;;;;5076640;28;20002;-79
2021/10/24 10:35:56;;;;;;;16.38;8.85;;;;;;;;;;5070335;28;20049;-80
2021/10/24 10:38:40;;;;;;;20.40;10.02;;;;;;;;;;5064863;28;20074;-81
2021/10/24 10:41:44;;;;;;;20.48;11.02;;;;;;;;;;5058253;28;20538;-85
2021/10/24 10:44:12;;;;;;;88.20;30.33;;;;;;;;;;5035729;28;20060;-83
2021/10/24 10:46:39;;;;;;;26.50;10.63;;;;;;;;;;5060108;28;20056;-83
2021/10/24 10:49:27;;;;;;;25.42;11.05;;;;;;;;;;5059767;28;20079;-83
2021/10/24 10:51:55;;;;;;;26.83;11.68;;;;;;;;;;5057656;28;20048;-84
2021/10/24 10:54:57;;;;;;;22.88;10.85;;;;;;;;;;5068961;28;20052;-83
2021/10/24 10:57:38;;;;;;;16.00;8.80;;;;;;;;;;5064661;28;20049;-83
2021/10/24 11:00:38;;;;;;;25.88;11.20;;;;;;;;;;5076122;22;20053;-66
2021/10/24 11:03:06;;;;;;;17.08;7.65;;;;;;;;;;5072261;28;20051;-67
2021/10/24 11:05:34;;;;;;;15.32;6.93;;;;;;;;;;5071976;28;20044;-64
2021/10/24 11:08:01;;;;;;;17.95;7.78;;;;;;;;;;5071876;28;20048;-67
2021/10/24 11:10:43;;;;;;;21.70;10.88;;;;;;;;;;5071802;28;20048;-64
2021/10/24 11:13:35;;;;;;;31.52;14.73;;;;;;;;;;5072180;28;20044;-65
2021/10/24 11:16:37;;;;;;;21.30;10.32;;;;;;;;;;5072053;28;20101;-66
2021/10/24 11:19:45;;;;;;;26.35;11.18;;;;;;;;;;5072107;28;20044;-63
2021/10/24 11:22:18;;;;;;;16.10;6.68;;;;;;;;;;5071806;28;20052;-63
2021/10/24 11:24:47;;;;;;;11.73;6.35;;;;;;;;;;5071932;28;20482;-63
2021/10/24 11:27:16;;;;;;;11.23;6.05;;;;;;;;;;5072110;28;20083;-62
2021/10/24 11:29:48;;;;;;;19.85;8.18;;;;;;;;;;5072132;28;20405;-63
2021/10/24 11:32:23;;;;;;;14.07;7.18;;;;;;;;;;5071999;28;20094;-63
2021/10/24 11:34:51;;;;;;;13.15;6.95;;;;;;;;;;5071851;28;20078;-61
2021/10/24 11:37:18;;;;;;;14.68;7.93;;;;;;;;;;5071793;28;20413;-62
2021/10/24 11:39:48;;;;;;;12.40;6.43;;;;;;;;;;5071651;28;20062;-64
2021/10/24 11:42:17;;;;;;;12.97;6.53;;;;;;;;;;5072011;28;20508;-64
2021/10/24 11:44:45;;;;;;;11.20;6.25;;;;;;;;;;5071498;28;20050;-62
2021/10/24 11:47:14;;;;;;;15.30;7.43;;;;;;;;;;5071616;28;20406;-63
2021/10/24 11:49:45;;;;;;;12.27;6.57;;;;;;;;;;5071912;28;20128;-64
2021/10/24 11:52:23;;;;;;;14.80;7.38;;;;;;;;;;5071409;28;20040;-63
2021/10/24 11:55:03;;;;;;;20.35;9.57;;;;;;;;;;5071561;28;20079;-64
2021/10/24 11:57:46;;;;;;;16.52;9.38;;;;;;;;;;5071772;28;20472;-63
2021/10/24 12:00:21;;;;;;;16.83;7.63;;;;;;;;;;5071170;28;20056;-62
2021/10/24 12:02:56;;;;;;;13.57;6.32;;;;;;;;;;5071525;28;20057;-63
2021/10/24 12:05:26;;;;;;;12.32;6.82;;;;;;;;;;5071471;28;20055;-61
2021/10/24 12:07:54;;;;;;;9.00;5.78;;;;;;;;;;5071965;28;20498;-61
2021/10/24 12:10:34;;;;;;;15.30;7.40;;;;;;;;;;5071257;28;20507;-63
2021/10/24 12:13:02;;;;;;;11.25;7.18;;;;;;;;;;5071476;28;20432;-63
2021/10/24 12:15:36;;;;;;;10.02;6.35;;;;;;;;;;5071617;28;20088;-62
2021/10/24 12:18:12;;;;;;;12.95;6.15;;;;;;;;;;5071190;28;20054;-62
2021/10/24 12:20:40;;;;;;;14.10;6.25;;;;;;;;;;5071581;28;20455;-61
2021/10/24 12:23:17;;;;;;;13.25;5.85;;;;;;;;;;5071459;28;20045;-63
2021/10/24 12:25:46;;;;;;;11.00;6.22;;;;;;;;;;5071537;28;20464;-62
2021/10/24 12:28:17;;;;;;;13.73;6.85;;;;;;;;;;5072109;28;20052;-64
2021/10/24 12:30:48;;;;;;;13.35;6.88;;;;;;;;;;5075046;28;20436;-63
2021/10/24 12:33:25;;;;;;;12.70;6.72;;;;;;;;;;5075222;28;20135;-64
2021/10/24 12:35:54;;;;;;;9.77;6.20;;;;;;;;;;5075150;28;20048;-64
2021/10/24 12:38:23;;;;;;;11.68;7.22;;;;;;;;;;5074881;28;20504;-63
2021/10/24 12:40:54;;;;;;;11.10;7.03;;;;;;;;;;5075162;28;20104;-62
2021/10/24 12:43:22;;;;;;;12.23;7.07;;;;;;;;;;5074895;28;20508;-62
2021/10/24 12:45:55;;;;;;;12.55;6.50;;;;;;;;;;5074670;28;20070;-62
2021/10/24 12:48:23;;;;;;;9.23;5.75;;;;;;;;;;5074782;28;20056;-63
2021/10/24 12:50:51;;;;;;;10.55;6.85;;;;;;;;;;5074601;28;20361;-63
2021/10/24 12:53:23;;;;;;;11.38;6.10;;;;;;;;;;5074587;28;20044;-63
2021/10/24 12:56:04;;;;;;;11.70;6.55;;;;;;;;;;5074783;28;20386;-63
2021/10/24 12:58:31;;;;;;;9.43;6.13;;;;;;;;;;5074499;28;20051;-63
2021/10/24 13:00:58;;;;;;;12.18;8.07;;;;;;;;;;5074657;28;20044;-64
2021/10/24 13:03:25;;;;;;;12.00;6.72;;;;;;;;;;5074497;28;20045;-62
2021/10/24 13:05:52;;;;;;;9.10;6.00;;;;;;;;;;5074825;28;20045;-64
2021/10/24 13:08:19;;;;;;;9.57;6.28;;;;;;;;;;5074809;28;20044;-64
2021/10/24 13:10:47;;;;;;;10.93;7.15;;;;;;;;;;5074338;28;20049;-63
2021/10/24 13:13:15;;;;;;;10.85;6.40;;;;;;;;;;5074366;28;20489;-63
2021/10/24 13:15:44;;;;;;;11.45;7.10;;;;;;;;;;5074455;28;20051;-63
2021/10/24 13:18:13;;;;;;;10.07;6.47;;;;;;;;;;5074633;28;20445;-63
2021/10/24 13:20:42;;;;;;;14.57;7.03;;;;;;;;;;5074609;28;20053;-64
2021/10/24 13:23:09;;;;;;;12.93;5.90;;;;;;;;;;5074239;28;20123;-62
2021/10/24 13:25:37;;;;;;;12.07;6.30;;;;;;;;;;5074426;28;20059;-64
2021/10/24 13:28:05;;;;;;;10.10;5.43;;;;;;;;;;5074148;28;20048;-63
2021/10/24 13:30:34;;;;;;;10.43;5.90;;;;;;;;;;5074261;28;20056;-64
2021/10/24 13:33:02;;;;;;;9.88;5.90;;;;;;;;;;5074272;28;20055;-63
2021/10/24 13:35:29;;;;;;;9.68;6.05;;;;;;;;;;5073821;28;20063;-63
2021/10/24 13:37:56;;;;;;;10.52;6.28;;;;;;;;;;5073776;28;20044;-64
2021/10/24 13:40:23;;;;;;;11.48;5.70;;;;;;;;;;5072794;28;20049;-63
2021/10/24 13:42:50;;;;;;;8.73;5.50;;;;;;;;;;5073756;28;20044;-62
2021/10/24 13:45:18;;;;;;;9.73;6.45;;;;;;;;;;5073774;28;20051;-62
2021/10/24 13:47:47;;;;;;;11.35;6.97;;;;;;;;;;5073665;28;20048;-63
2021/10/24 13:50:14;;;;;;;13.43;6.88;;;;;;;;;;5073509;28;20096;-63
2021/10/24 13:52:41;;;;;;;10.80;6.22;;;;;;;;;;5073699;28;20048;-63
2021/10/24 13:55:09;;;;;;;9.75;5.93;;;;;;;;;;5073509;28;20048;-63
2021/10/24 13:57:36;;;;;;;8.73;5.72;;;;;;;;;;5073384;28;20048;-64
2021/10/24 14:00:04;;;;;;;25.38;13.15;;;;;;;;;;5073118;28;20048;-62
2021/10/24 14:02:33;;;;;;;16.27;8.73;;;;;;;;;;5073538;28;20488;-67
2021/10/24 14:05:03;;;;;;;10.65;6.38;;;;;;;;;;5073373;28;20056;-64
2021/10/24 14:07:30;;;;;;;11.30;6.22;;;;;;;;;;5073392;28;20520;-64
2021/10/24 14:09:57;;;;;;;10.68;6.35;;;;;;;;;;5073384;28;20044;-64
2021/10/24 14:12:24;;;;;;;11.43;6.03;;;;;;;;;;5073417;28;20044;-62
2021/10/24 14:14:51;;;;;;;10.70;6.82;;;;;;;;;;5073418;28;20102;-63
2021/10/24 14:17:18;;;;;;;11.00;7.13;;;;;;;;;;5073223;28;20051;-62
2021/10/24 14:19:45;;;;;;;14.25;7.57;;;;;;;;;;5072985;28;20087;-63
2021/10/24 14:22:13;;;;;;;14.18;8.20;;;;;;;;;;5073255;28;20048;-62
2021/10/24 14:24:43;;;;;;;11.18;7.55;;;;;;;;;;5105422;22;20044;-82
2021/10/24 14:27:10;;;;;;;11.23;6.50;;;;;;;;;;5099209;28;20052;-81
2021/10/24 14:56:07;;;;;;;14.68;7.88;;;;;;;;;;5723488;22;20048;-81
2021/10/24 14:58:35;;;;;;;13.32;8.23;;;;;;;;;;5102182;28;20093;-81
2021/10/24 15:01:02;;;;;;;14.93;8.40;;;;;;;;;;5098037;28;20441;-81
2021/10/24 15:03:29;;;;;;;15.43;8.57;;;;;;;;;;5097502;28;20252;-82
2021/10/24 15:05:57;;;;;;;16.77;8.55;;;;;;;;;;5103707;28;20085;-80
2021/10/24 15:08:24;;;;;;;16.10;8.18;;;;;;;;;;5110850;28;20051;-80
2021/10/24 15:10:52;;;;;;;12.63;7.95;;;;;;;;;;5111256;28;20078;-82